Time;durP1;ratioP1;P1;durP2;ratioP2;P2;SDS_P1;SDS_P2;PMS_P1;PMS_P2;Temp;Humidity;BMP_temperature;BMP_pressure;BME280_temperature;BME280_humidity;BME280_pressure;Samples;Min_cycle;Max_cycle;Signal;HPM_P1;HPM_P2
2022/03/13 00:02:21;;;;;;;2.92;2.53;;;;;;;;;;5132303;28;20506;-50
2022/03/13 00:04:50;;;;;;;2.60;2.40;;;;;;;;;;5136492;28;20412;-50
2022/03/13 00:07:21;;;;;;;2.50;2.25;;;;;;;;;;5136029;28;20286;-50
2022/03/13 00:09:50;;;;;;;2.53;2.30;;;;;;;;;;5135696;28;20238;-50
2022/03/13 00:12:26;;;;;;;2.40;2.20;;;;;;;;;;5136295;28;20198;-50
2022/03/13 00:14:55;;;;;;;2.53;2.30;;;;;;;;;;5135974;28;20607;-50
2022/03/13 00:17:24;;;;;;;2.80;2.60;;;;;;;;;;5135498;28;20198;-50
2022/03/13 00:19:51;;;;;;;2.85;2.55;;;;;;;;;;5135760;28;20207;-50
2022/03/13 00:22:20;;;;;;;2.35;2.15;;;;;;;;;;5135875;28;20261;-50
2022/03/13 00:24:48;;;;;;;2.95;2.60;;;;;;;;;;5136676;28;20284;-50
2022/03/13 00:27:15;;;;;;;2.60;2.40;;;;;;;;;;5135582;28;20570;-50
2022/03/13 00:29:43;;;;;;;2.58;2.25;;;;;;;;;;5136378;28;20394;-50
2022/03/13 00:32:10;;;;;;;2.60;2.40;;;;;;;;;;5136108;28;20209;-50
2022/03/13 00:34:38;;;;;;;2.90;2.20;;;;;;;;;;5136115;28;20213;-50
2022/03/13 00:37:05;;;;;;;2.40;2.20;;;;;;;;;;5135757;28;20212;-50
2022/03/13 00:39:34;;;;;;;2.60;2.30;;;;;;;;;;5136245;28;20203;-50
2022/03/13 00:42:01;;;;;;;2.63;2.30;;;;;;;;;;5135849;28;20320;-50
2022/03/13 00:44:29;;;;;;;2.65;2.30;;;;;;;;;;5136171;28;20202;-50
2022/03/13 00:46:56;;;;;;;3.20;2.65;;;;;;;;;;5136081;28;20213;-50
2022/03/13 00:49:23;;;;;;;2.50;2.30;;;;;;;;;;5136106;28;20213;-50
2022/03/13 00:51:51;;;;;;;2.60;2.40;;;;;;;;;;5135884;28;20198;-50
2022/03/13 00:54:18;;;;;;;2.67;2.47;;;;;;;;;;5135369;28;20198;-50
2022/03/13 00:56:47;;;;;;;2.30;2.10;;;;;;;;;;5135241;28;20230;-49
2022/03/13 00:59:14;;;;;;;2.63;2.38;;;;;;;;;;5136838;27;20216;-49
2022/03/13 01:01:42;;;;;;;2.88;2.55;;;;;;;;;;5139421;27;20290;-49
2022/03/13 01:04:09;;;;;;;2.40;2.20;;;;;;;;;;5139051;27;20199;-50
2022/03/13 01:06:37;;;;;;;2.53;2.30;;;;;;;;;;5139913;27;20194;-50
2022/03/13 01:09:05;;;;;;;2.58;2.38;;;;;;;;;;5139722;27;20285;-50
2022/03/13 01:11:33;;;;;;;2.38;2.13;;;;;;;;;;5139324;27;20199;-50
2022/03/13 01:14:02;;;;;;;2.53;2.33;;;;;;;;;;5139466;27;20198;-50
2022/03/13 01:16:30;;;;;;;2.47;2.28;;;;;;;;;;5139134;27;20498;-49
2022/03/13 01:18:59;;;;;;;2.22;2.03;;;;;;;;;;5139625;27;20232;-49
2022/03/13 01:21:27;;;;;;;2.40;2.20;;;;;;;;;;5139206;27;20202;-50
2022/03/13 01:24:15;;;;;;;2.60;2.40;;;;;;;;;;5138753;27;20209;-49
2022/03/13 01:26:43;;;;;;;2.85;2.22;;;;;;;;;;5132344;27;20213;-49
2022/03/13 01:29:12;;;;;;;2.50;2.30;;;;;;;;;;5139007;27;20237;-49
2022/03/13 01:31:42;;;;;;;2.83;2.50;;;;;;;;;;5138046;27;20194;-49
2022/03/13 01:34:12;;;;;;;2.78;2.22;;;;;;;;;;5139107;27;20194;-49
2022/03/13 01:36:40;;;;;;;2.50;2.30;;;;;;;;;;5139517;27;20198;-49
2022/03/13 01:39:08;;;;;;;2.53;2.33;;;;;;;;;;5139384;27;20202;-49
2022/03/13 01:41:36;;;;;;;2.55;2.35;;;;;;;;;;5139326;27;20284;-50
2022/03/13 01:44:05;;;;;;;2.58;2.20;;;;;;;;;;5138542;27;20596;-49
2022/03/13 01:46:33;;;;;;;2.30;2.10;;;;;;;;;;5139729;27;20564;-50
2022/03/13 01:49:02;;;;;;;2.92;2.60;;;;;;;;;;5139382;27;20221;-49
2022/03/13 01:51:31;;;;;;;2.60;2.40;;;;;;;;;;5139740;27;20213;-49
2022/03/13 01:54:01;;;;;;;2.63;2.42;;;;;;;;;;5139224;27;20206;-49
2022/03/13 01:56:30;;;;;;;2.70;2.40;;;;;;;;;;5139263;27;20202;-49
2022/03/13 01:58:58;;;;;;;2.75;2.55;;;;;;;;;;5138864;27;20596;-50
2022/03/13 02:01:26;;;;;;;2.55;2.35;;;;;;;;;;5139726;27;20202;-50
2022/03/13 02:03:56;;;;;;;2.35;2.15;;;;;;;;;;5139285;27;20473;-49
2022/03/13 02:06:24;;;;;;;2.38;2.17;;;;;;;;;;5139122;27;20249;-49
2022/03/13 02:08:53;;;;;;;2.70;2.50;;;;;;;;;;5139276;27;20206;-49
2022/03/13 02:11:22;;;;;;;2.67;2.33;;;;;;;;;;5138470;27;20202;-49
2022/03/13 02:13:50;;;;;;;2.30;2.10;;;;;;;;;;5139084;27;20220;-49
2022/03/13 02:16:18;;;;;;;2.78;2.13;;;;;;;;;;5139216;27;20225;-49
2022/03/13 02:18:49;;;;;;;2.53;2.33;;;;;;;;;;5138585;27;20206;-49
2022/03/13 02:21:18;;;;;;;2.85;2.50;;;;;;;;;;5139154;27;20216;-49
2022/03/13 02:23:47;;;;;;;2.15;1.95;;;;;;;;;;5138059;27;20218;-50
2022/03/13 02:26:14;;;;;;;2.50;2.30;;;;;;;;;;5139141;27;20201;-50
2022/03/13 02:28:44;;;;;;;2.65;2.30;;;;;;;;;;5138466;27;20232;-49
2022/03/13 02:31:14;;;;;;;2.53;2.33;;;;;;;;;;5138499;27;20206;-49
2022/03/13 02:33:41;;;;;;;2.67;2.45;;;;;;;;;;5137985;27;20198;-49
2022/03/13 02:36:23;;;;;;;2.50;2.30;;;;;;;;;;5117624;28;20199;-50
2022/03/13 02:38:51;;;;;;;2.40;2.20;;;;;;;;;;5117704;28;20206;-50
2022/03/13 02:41:19;;;;;;;2.47;2.25;;;;;;;;;;5117658;28;20194;-50
2022/03/13 02:43:46;;;;;;;2.67;2.47;;;;;;;;;;5122525;27;20521;-50
2022/03/13 02:46:19;;;;;;;2.50;2.30;;;;;;;;;;5138839;27;20202;-50
2022/03/13 02:48:47;;;;;;;2.67;2.13;;;;;;;;;;5137558;27;20636;-50
2022/03/13 02:51:14;;;;;;;2.47;2.28;;;;;;;;;;5138528;27;20209;-50
2022/03/13 02:53:42;;;;;;;2.25;2.05;;;;;;;;;;5137691;27;20195;-50
2022/03/13 02:56:11;;;;;;;2.30;2.10;;;;;;;;;;5138544;27;20202;-50
2022/03/13 02:58:39;;;;;;;2.50;2.30;;;;;;;;;;5138280;27;20216;-49
2022/03/13 03:01:06;;;;;;;2.38;2.15;;;;;;;;;;5137060;27;20217;-50
2022/03/13 03:03:34;;;;;;;2.60;2.33;;;;;;;;;;5138611;27;20248;-49
2022/03/13 03:06:03;;;;;;;2.40;2.20;;;;;;;;;;5138356;27;20217;-49
2022/03/13 03:08:30;;;;;;;2.33;2.13;;;;;;;;;;5137851;27;20225;-49
2022/03/13 03:10:57;;;;;;;2.28;2.00;;;;;;;;;;5137707;27;20216;-50
2022/03/13 03:13:26;;;;;;;2.28;2.08;;;;;;;;;;5137625;27;20285;-49
2022/03/13 03:15:54;;;;;;;2.50;2.30;;;;;;;;;;5137916;27;20206;-50
2022/03/13 03:18:22;;;;;;;2.35;2.15;;;;;;;;;;5138131;27;20206;-50
2022/03/13 03:20:49;;;;;;;2.30;2.10;;;;;;;;;;5137241;27;20546;-50
2022/03/13 03:23:16;;;;;;;2.30;2.10;;;;;;;;;;5136508;27;20222;-50
2022/03/13 03:25:44;;;;;;;2.50;2.30;;;;;;;;;;5136708;27;20202;-49
2022/03/13 03:28:12;;;;;;;2.22;2.03;;;;;;;;;;5137437;27;20202;-50
2022/03/13 03:30:40;;;;;;;2.40;2.20;;;;;;;;;;5137444;27;20202;-49
2022/03/13 03:33:08;;;;;;;2.50;2.30;;;;;;;;;;5136910;27;20194;-49
2022/03/13 03:35:35;;;;;;;2.33;2.08;;;;;;;;;;5137584;27;20202;-49
2022/03/13 03:38:03;;;;;;;2.88;2.28;;;;;;;;;;5137711;27;20581;-50
2022/03/13 03:40:32;;;;;;;2.40;2.20;;;;;;;;;;5138025;27;20569;-50
2022/03/13 03:43:01;;;;;;;2.33;2.13;;;;;;;;;;5137166;27;20229;-50
2022/03/13 03:45:28;;;;;;;3.13;2.53;;;;;;;;;;5137864;27;20212;-50
2022/03/13 03:47:57;;;;;;;2.78;2.40;;;;;;;;;;5138144;28;20516;-49
2022/03/13 03:50:24;;;;;;;2.30;2.10;;;;;;;;;;5138122;28;20206;-50
2022/03/13 03:52:55;;;;;;;2.33;2.13;;;;;;;;;;5137555;28;20263;-50
2022/03/13 03:55:23;;;;;;;2.30;2.10;;;;;;;;;;5137873;28;20263;-50
2022/03/13 03:57:51;;;;;;;2.30;2.10;;;;;;;;;;5137487;28;20478;-50
2022/03/13 04:00:19;;;;;;;2.47;2.28;;;;;;;;;;5138018;28;20218;-50
2022/03/13 04:02:46;;;;;;;2.40;2.20;;;;;;;;;;5137407;28;20214;-50
2022/03/13 04:05:15;;;;;;;2.10;1.90;;;;;;;;;;5137702;28;20562;-50
2022/03/13 04:07:43;;;;;;;2.40;2.20;;;;;;;;;;5137622;28;20209;-50
2022/03/13 04:10:10;;;;;;;2.13;1.92;;;;;;;;;;5138009;28;20213;-50
2022/03/13 04:12:38;;;;;;;2.50;2.30;;;;;;;;;;5137271;28;20191;-49
2022/03/13 04:15:06;;;;;;;2.25;2.05;;;;;;;;;;5137719;28;20611;-50
2022/03/13 04:17:34;;;;;;;2.53;2.33;;;;;;;;;;5137628;28;20202;-50
2022/03/13 04:20:06;;;;;;;2.58;2.38;;;;;;;;;;5137820;28;20210;-50
2022/03/13 04:22:35;;;;;;;2.22;2.03;;;;;;;;;;5137092;28;20274;-50
2022/03/13 04:25:03;;;;;;;2.15;1.95;;;;;;;;;;5137452;28;20594;-50
2022/03/13 04:27:32;;;;;;;2.22;2.00;;;;;;;;;;5137802;28;20215;-50
2022/03/13 04:30:00;;;;;;;2.40;2.20;;;;;;;;;;5137702;28;20556;-50
2022/03/13 04:32:28;;;;;;;2.20;2.00;;;;;;;;;;5137498;27;20198;-50
2022/03/13 04:34:56;;;;;;;2.55;2.30;;;;;;;;;;5141222;27;20216;-50
2022/03/13 04:37:24;;;;;;;2.22;2.03;;;;;;;;;;5141426;27;20202;-50
2022/03/13 04:39:52;;;;;;;2.30;2.08;;;;;;;;;;5141605;27;20280;-49
2022/03/13 04:42:20;;;;;;;2.05;1.88;;;;;;;;;;5141391;27;20477;-50
2022/03/13 04:44:48;;;;;;;2.17;1.98;;;;;;;;;;5141496;27;20237;-50
2022/03/13 04:47:15;;;;;;;2.60;2.40;;;;;;;;;;5140846;27;20202;-50
2022/03/13 04:49:43;;;;;;;2.80;2.22;;;;;;;;;;5140258;27;20620;-49
2022/03/13 04:52:10;;;;;;;2.20;2.00;;;;;;;;;;5139887;27;20206;-50
2022/03/13 04:54:38;;;;;;;2.22;2.03;;;;;;;;;;5140105;27;20209;-50
2022/03/13 04:57:07;;;;;;;2.50;2.30;;;;;;;;;;5140011;27;20246;-50
2022/03/13 04:59:34;;;;;;;2.60;2.13;;;;;;;;;;5139957;27;20241;-50
2022/03/13 05:02:02;;;;;;;2.42;2.17;;;;;;;;;;5139789;27;20199;-50
2022/03/13 05:04:31;;;;;;;2.35;2.10;;;;;;;;;;5140089;27;20664;-50
2022/03/13 05:06:59;;;;;;;2.03;1.92;;;;;;;;;;5140032;27;20577;-50
2022/03/13 05:09:27;;;;;;;2.60;2.35;;;;;;;;;;5140046;27;20202;-50
2022/03/13 05:11:55;;;;;;;2.58;2.38;;;;;;;;;;5140102;27;20268;-50
2022/03/13 05:14:24;;;;;;;2.90;2.70;;;;;;;;;;5140387;27;20474;-49
2022/03/13 05:16:51;;;;;;;2.40;2.20;;;;;;;;;;5139849;27;20202;-50
2022/03/13 05:19:19;;;;;;;2.28;2.08;;;;;;;;;;5139768;27;20203;-49
2022/03/13 05:21:46;;;;;;;2.33;2.13;;;;;;;;;;5140177;27;20205;-50
2022/03/13 05:24:14;;;;;;;2.35;2.15;;;;;;;;;;5140088;27;20240;-50
2022/03/13 05:26:41;;;;;;;2.40;2.20;;;;;;;;;;5139596;27;20312;-50
2022/03/13 05:29:09;;;;;;;2.58;2.33;;;;;;;;;;5140184;27;20202;-50
2022/03/13 05:31:39;;;;;;;2.50;2.30;;;;;;;;;;5139463;27;20255;-49
2022/03/13 05:34:07;;;;;;;2.35;2.15;;;;;;;;;;5139731;27;20199;-49
2022/03/13 05:36:34;;;;;;;2.30;2.10;;;;;;;;;;5139997;27;20210;-50
2022/03/13 05:39:01;;;;;;;2.70;2.30;;;;;;;;;;5138852;27;20208;-50
2022/03/13 05:41:30;;;;;;;2.60;2.40;;;;;;;;;;5139539;27;20209;-50
2022/03/13 05:43:58;;;;;;;2.47;2.28;;;;;;;;;;5138817;27;20283;-49
2022/03/13 05:46:26;;;;;;;2.60;2.17;;;;;;;;;;5138886;27;20205;-49
2022/03/13 05:48:55;;;;;;;2.60;2.40;;;;;;;;;;5139970;27;20580;-50
2022/03/13 05:51:23;;;;;;;2.30;2.10;;;;;;;;;;5139326;27;20600;-50
2022/03/13 05:53:51;;;;;;;2.60;2.40;;;;;;;;;;5138886;27;20191;-49
2022/03/13 05:56:18;;;;;;;2.40;2.20;;;;;;;;;;5138957;27;20224;-50
2022/03/13 05:58:45;;;;;;;2.35;2.15;;;;;;;;;;5138851;27;20206;-49
2022/03/13 06:01:12;;;;;;;2.55;2.13;;;;;;;;;;5138989;27;20209;-49
2022/03/13 06:03:41;;;;;;;2.42;2.05;;;;;;;;;;5137786;27;20218;-50
2022/03/13 06:06:10;;;;;;;2.42;2.22;;;;;;;;;;5138550;27;20304;-50
2022/03/13 06:08:37;;;;;;;2.50;2.30;;;;;;;;;;5138143;27;20198;-50
2022/03/13 06:11:05;;;;;;;2.40;2.20;;;;;;;;;;5138013;27;20202;-50
2022/03/13 06:13:33;;;;;;;2.38;2.17;;;;;;;;;;5138732;27;20481;-50
2022/03/13 06:16:00;;;;;;;2.50;2.30;;;;;;;;;;5138129;27;20216;-49
2022/03/13 06:18:28;;;;;;;2.40;2.20;;;;;;;;;;5138666;27;20213;-49
2022/03/13 06:20:55;;;;;;;2.40;2.20;;;;;;;;;;5138489;27;20621;-49
2022/03/13 06:23:24;;;;;;;2.70;2.50;;;;;;;;;;5137480;27;20228;-49
2022/03/13 06:25:52;;;;;;;2.30;2.05;;;;;;;;;;5138090;27;20202;-50
2022/03/13 06:28:21;;;;;;;2.40;2.20;;;;;;;;;;5137911;27;20210;-49
2022/03/13 06:30:49;;;;;;;2.53;2.28;;;;;;;;;;5138369;27;20202;-50
2022/03/13 06:33:16;;;;;;;2.42;2.22;;;;;;;;;;5137220;27;20194;-49
2022/03/13 06:35:44;;;;;;;2.42;2.22;;;;;;;;;;5138351;27;20624;-49
2022/03/13 06:38:11;;;;;;;2.30;2.10;;;;;;;;;;5137412;27;20202;-49
2022/03/13 06:40:40;;;;;;;2.38;2.17;;;;;;;;;;5136029;27;20234;-49
2022/03/13 06:43:07;;;;;;;2.42;2.17;;;;;;;;;;5136294;27;20206;-50
2022/03/13 06:45:35;;;;;;;2.50;2.30;;;;;;;;;;5137500;27;20490;-49
2022/03/13 06:48:02;;;;;;;2.25;2.05;;;;;;;;;;5137072;27;20203;-49
2022/03/13 06:50:30;;;;;;;2.50;2.00;;;;;;;;;;5136813;27;20385;-49
2022/03/13 06:52:57;;;;;;;2.42;2.00;;;;;;;;;;5136993;27;20212;-49
2022/03/13 06:55:25;;;;;;;2.67;2.30;;;;;;;;;;5135938;27;20206;-49
2022/03/13 06:57:54;;;;;;;2.28;2.03;;;;;;;;;;5137272;27;20638;-50
2022/03/13 07:00:21;;;;;;;2.60;2.40;;;;;;;;;;5136559;27;20206;-50
2022/03/13 07:02:49;;;;;;;2.88;2.55;;;;;;;;;;5136705;27;20465;-49
2022/03/13 07:05:17;;;;;;;2.63;2.38;;;;;;;;;;5136792;27;20218;-49
2022/03/13 07:07:44;;;;;;;2.40;2.20;;;;;;;;;;5137451;27;20224;-49
2022/03/13 07:10:12;;;;;;;2.70;2.50;;;;;;;;;;5136775;27;20225;-49
2022/03/13 07:12:40;;;;;;;2.58;2.38;;;;;;;;;;5137507;27;20202;-49
2022/03/13 07:15:13;;;;;;;2.80;2.53;;;;;;;;;;5137028;27;20574;-49
2022/03/13 07:17:42;;;;;;;8.85;6.32;;;;;;;;;;5137334;27;20214;-49
2022/03/13 07:20:10;;;;;;;48.70;34.45;;;;;;;;;;5137588;27;20476;-49
2022/03/13 07:22:37;;;;;;;58.00;42.35;;;;;;;;;;5136918;27;20206;-49
2022/03/13 07:25:05;;;;;;;48.42;35.00;;;;;;;;;;5136483;27;20222;-49
2022/03/13 07:27:33;;;;;;;49.10;35.55;;;;;;;;;;5137397;27;20202;-50
2022/03/13 07:30:01;;;;;;;42.00;31.60;;;;;;;;;;5137252;27;20203;-50
2022/03/13 07:32:30;;;;;;;43.10;31.98;;;;;;;;;;5137411;27;20209;-49
2022/03/13 07:34:57;;;;;;;40.28;30.50;;;;;;;;;;5136779;27;20194;-49
2022/03/13 07:37:26;;;;;;;40.22;29.92;;;;;;;;;;5137690;27;20194;-50
2022/03/13 07:39:53;;;;;;;37.67;29.05;;;;;;;;;;5137856;27;20206;-50
2022/03/13 07:42:21;;;;;;;38.13;28.80;;;;;;;;;;5137245;27;20205;-50
2022/03/13 07:44:49;;;;;;;36.90;26.70;;;;;;;;;;5137106;27;20222;-50
2022/03/13 07:47:16;;;;;;;36.20;27.80;;;;;;;;;;5137233;28;20202;-50
2022/03/13 07:49:46;;;;;;;31.63;25.17;;;;;;;;;;5136512;28;20202;-50
2022/03/13 07:52:13;;;;;;;32.40;25.10;;;;;;;;;;5136517;28;20213;-50
2022/03/13 07:54:41;;;;;;;32.00;24.20;;;;;;;;;;5136434;28;20590;-50
2022/03/13 07:57:08;;;;;;;31.08;23.48;;;;;;;;;;5136407;28;20253;-50
2022/03/13 07:59:36;;;;;;;28.45;22.17;;;;;;;;;;5137074;28;20206;-50
2022/03/13 08:02:03;;;;;;;27.45;21.60;;;;;;;;;;5136865;28;20201;-50
2022/03/13 08:04:30;;;;;;;28.55;22.02;;;;;;;;;;5136275;28;20218;-50
2022/03/13 08:06:59;;;;;;;27.40;20.58;;;;;;;;;;5136440;27;20202;-50
2022/03/13 08:09:27;;;;;;;27.70;20.55;;;;;;;;;;5141268;27;20600;-50
2022/03/13 08:11:55;;;;;;;23.27;18.75;;;;;;;;;;5141090;27;20221;-50
2022/03/13 08:14:22;;;;;;;25.27;19.40;;;;;;;;;;5140524;27;20198;-50
2022/03/13 08:16:49;;;;;;;23.38;18.58;;;;;;;;;;5140905;27;20202;-50
2022/03/13 08:19:17;;;;;;;24.38;18.35;;;;;;;;;;5140313;27;20202;-50
2022/03/13 08:21:44;;;;;;;22.58;16.85;;;;;;;;;;5140512;27;20236;-50
2022/03/13 08:24:15;;;;;;;21.00;16.48;;;;;;;;;;5139505;27;20217;-50
2022/03/13 08:26:43;;;;;;;22.58;16.38;;;;;;;;;;5140534;27;20207;-50
2022/03/13 08:29:11;;;;;;;20.42;16.02;;;;;;;;;;5140515;27;20334;-50
2022/03/13 08:31:39;;;;;;;20.42;15.68;;;;;;;;;;5140375;27;20202;-50
2022/03/13 08:34:08;;;;;;;18.35;14.90;;;;;;;;;;5140217;27;20225;-50
2022/03/13 08:36:35;;;;;;;17.92;14.30;;;;;;;;;;5140299;27;20209;-50
2022/03/13 08:39:03;;;;;;;17.63;14.07;;;;;;;;;;5139778;27;20202;-50
2022/03/13 08:41:32;;;;;;;15.82;13.15;;;;;;;;;;5139929;27;20616;-50
2022/03/13 08:43:59;;;;;;;16.67;13.10;;;;;;;;;;5138960;27;20236;-50
2022/03/13 08:46:26;;;;;;;16.45;13.07;;;;;;;;;;5139571;27;20203;-50
2022/03/13 08:48:54;;;;;;;15.45;12.63;;;;;;;;;;5139994;27;20202;-50
2022/03/13 08:51:23;;;;;;;16.02;12.55;;;;;;;;;;5139780;27;20198;-50
2022/03/13 08:53:51;;;;;;;16.30;12.38;;;;;;;;;;5140194;27;20546;-50
2022/03/13 08:56:20;;;;;;;14.63;11.95;;;;;;;;;;5138906;27;20202;-50
2022/03/13 08:58:48;;;;;;;14.00;11.45;;;;;;;;;;5140468;27;20566;-50
2022/03/13 09:01:17;;;;;;;13.43;10.85;;;;;;;;;;5140303;27;20199;-50
2022/03/13 09:03:44;;;;;;;14.43;11.10;;;;;;;;;;5140214;27;20221;-50
2022/03/13 09:06:12;;;;;;;13.57;10.27;;;;;;;;;;5139090;27;20225;-50
2022/03/13 09:08:40;;;;;;;11.10;9.85;;;;;;;;;;5139711;27;20622;-50
2022/03/13 09:11:07;;;;;;;13.32;10.20;;;;;;;;;;5139938;27;20202;-50
2022/03/13 09:13:35;;;;;;;11.40;9.35;;;;;;;;;;5140186;27;20213;-50
2022/03/13 09:16:05;;;;;;;11.18;9.82;;;;;;;;;;5139652;27;20491;-50
2022/03/13 09:18:32;;;;;;;10.85;9.02;;;;;;;;;;5140196;27;20739;-50
2022/03/13 09:21:01;;;;;;;10.18;8.60;;;;;;;;;;5138313;27;20214;-50
2022/03/13 09:23:28;;;;;;;10.65;9.00;;;;;;;;;;5139445;27;20233;-50
2022/03/13 09:25:56;;;;;;;9.73;8.25;;;;;;;;;;5139461;27;20222;-50
2022/03/13 09:28:23;;;;;;;10.25;8.20;;;;;;;;;;5139902;27;20212;-49
2022/03/13 09:30:50;;;;;;;10.65;8.52;;;;;;;;;;5139237;27;20780;-50
2022/03/13 09:33:19;;;;;;;9.77;8.50;;;;;;;;;;5139605;27;20478;-50
2022/03/13 09:35:48;;;;;;;8.13;7.25;;;;;;;;;;5138988;27;20195;-50
2022/03/13 09:38:16;;;;;;;8.02;7.20;;;;;;;;;;5139558;27;20210;-50
2022/03/13 09:40:43;;;;;;;9.02;7.70;;;;;;;;;;5139360;27;20845;-50
2022/03/13 09:43:11;;;;;;;8.80;7.55;;;;;;;;;;5139082;27;20209;-50
2022/03/13 09:45:38;;;;;;;8.95;6.78;;;;;;;;;;5138428;27;20218;-50
2022/03/13 09:48:09;;;;;;;8.38;7.43;;;;;;;;;;5139140;27;20309;-50
2022/03/13 09:50:39;;;;;;;7.80;6.90;;;;;;;;;;5138778;27;20198;-50
2022/03/13 09:53:07;;;;;;;8.73;6.70;;;;;;;;;;5138302;27;20202;-50
2022/03/13 09:55:34;;;;;;;7.25;6.05;;;;;;;;;;5138357;27;20202;-50
2022/03/13 09:58:01;;;;;;;9.20;6.90;;;;;;;;;;5138862;27;20649;-50
2022/03/13 10:00:29;;;;;;;7.28;5.95;;;;;;;;;;5138746;27;20584;-50
2022/03/13 10:02:57;;;;;;;9.70;6.60;;;;;;;;;;5139011;27;20468;-50
2022/03/13 10:05:27;;;;;;;8.15;6.43;;;;;;;;;;5138025;27;20667;-50
2022/03/13 10:07:57;;;;;;;7.65;6.32;;;;;;;;;;5138500;27;20212;-50
2022/03/13 10:10:25;;;;;;;6.70;5.78;;;;;;;;;;5137777;27;20209;-50
2022/03/13 10:12:52;;;;;;;6.43;5.70;;;;;;;;;;5138303;27;20202;-50
2022/03/13 10:15:20;;;;;;;7.10;5.63;;;;;;;;;;5137701;27;20600;-50
2022/03/13 10:17:48;;;;;;;6.50;5.53;;;;;;;;;;5138570;27;20206;-50
2022/03/13 10:20:19;;;;;;;7.05;5.57;;;;;;;;;;5137314;27;20275;-50
2022/03/13 10:22:46;;;;;;;6.80;5.72;;;;;;;;;;5137224;27;20194;-50
2022/03/13 10:25:17;;;;;;;6.78;5.32;;;;;;;;;;5137812;27;20230;-50
2022/03/13 10:27:45;;;;;;;7.43;5.20;;;;;;;;;;5137984;27;20225;-50
2022/03/13 10:30:13;;;;;;;6.18;5.20;;;;;;;;;;5137533;27;20198;-50
2022/03/13 10:32:40;;;;;;;5.18;4.68;;;;;;;;;;5137567;27;20263;-50
2022/03/13 10:35:08;;;;;;;5.50;4.75;;;;;;;;;;5137514;27;20194;-50
2022/03/13 10:37:37;;;;;;;7.82;5.57;;;;;;;;;;5137939;27;20198;-50
2022/03/13 10:40:09;;;;;;;7.82;4.82;;;;;;;;;;5137779;27;20203;-50
2022/03/13 10:42:44;;;;;;;5.32;4.53;;;;;;;;;;5137154;27;20202;-50
2022/03/13 10:45:15;;;;;;;5.80;4.80;;;;;;;;;;5136431;27;20217;-50
2022/03/13 10:47:42;;;;;;;5.30;4.63;;;;;;;;;;5137358;27;20538;-50
2022/03/13 10:50:10;;;;;;;5.30;4.80;;;;;;;;;;5137466;27;20202;-50
2022/03/13 10:52:45;;;;;;;5.30;4.80;;;;;;;;;;5137491;27;20213;-50
2022/03/13 10:55:24;;;;;;;6.95;4.85;;;;;;;;;;5137049;27;20592;-50
2022/03/13 10:57:54;;;;;;;5.88;4.38;;;;;;;;;;5137883;27;20534;-50
2022/03/13 11:00:22;;;;;;;5.35;4.85;;;;;;;;;;5137468;27;20203;-50
2022/03/13 11:02:50;;;;;;;5.05;4.50;;;;;;;;;;5137639;27;20202;-50
2022/03/13 11:05:17;;;;;;;5.13;4.45;;;;;;;;;;5137393;27;20221;-50
2022/03/13 11:07:45;;;;;;;4.95;4.45;;;;;;;;;;5137199;27;20202;-50
2022/03/13 11:10:13;;;;;;;5.03;4.53;;;;;;;;;;5136861;27;20205;-50
2022/03/13 11:12:41;;;;;;;4.80;4.32;;;;;;;;;;5136229;27;20267;-50
2022/03/13 11:15:11;;;;;;;5.10;4.60;;;;;;;;;;5136752;27;20205;-50
2022/03/13 11:17:40;;;;;;;5.50;4.53;;;;;;;;;;5137045;27;20198;-50
2022/03/13 11:20:09;;;;;;;4.95;4.50;;;;;;;;;;5135541;27;20224;-50
2022/03/13 11:22:37;;;;;;;4.80;4.22;;;;;;;;;;5135559;27;20502;-50
2022/03/13 11:25:06;;;;;;;5.10;4.43;;;;;;;;;;5135687;27;20740;-50
2022/03/13 11:27:36;;;;;;;4.38;3.97;;;;;;;;;;5135318;27;20251;-50
2022/03/13 11:30:03;;;;;;;4.47;4.07;;;;;;;;;;5136820;27;20210;-50
2022/03/13 11:32:42;;;;;;;4.93;4.40;;;;;;;;;;5135386;27;20582;-50
2022/03/13 11:35:39;;;;;;;4.80;4.30;;;;;;;;;;5135050;27;20196;-50
2022/03/13 11:38:17;;;;;;;4.82;4.30;;;;;;;;;;5051640;28;20535;-50
2022/03/13 11:40:44;;;;;;;4.90;4.00;;;;;;;;;;5122308;27;20202;-50
2022/03/13 11:43:13;;;;;;;4.38;3.97;;;;;;;;;;5135099;27;20205;-50
2022/03/13 11:45:41;;;;;;;4.75;4.00;;;;;;;;;;5135363;27;20610;-50
2022/03/13 11:48:42;;;;;;;4.25;3.85;;;;;;;;;;5136404;27;20490;-50
2022/03/13 11:51:11;;;;;;;4.07;3.67;;;;;;;;;;5135113;28;20202;-50
2022/03/13 11:53:48;;;;;;;4.20;3.80;;;;;;;;;;5135039;28;20207;-50
2022/03/13 11:56:26;;;;;;;4.80;4.30;;;;;;;;;;5134223;28;20198;-50
2022/03/13 11:58:54;;;;;;;4.28;3.70;;;;;;;;;;5135862;28;20198;-50
2022/03/13 12:01:22;;;;;;;4.25;3.85;;;;;;;;;;5134496;28;20517;-50
2022/03/13 12:04:07;;;;;;;4.30;3.90;;;;;;;;;;5136189;28;20213;-50
2022/03/13 12:06:40;;;;;;;4.10;3.70;;;;;;;;;;5133354;28;20232;-50
2022/03/13 12:09:08;;;;;;;3.88;3.47;;;;;;;;;;5135547;28;20229;-50
2022/03/13 12:11:38;;;;;;;4.43;3.38;;;;;;;;;;5134664;28;20597;-50
2022/03/13 12:14:07;;;;;;;4.65;3.65;;;;;;;;;;5134982;28;20503;-50
2022/03/13 12:16:34;;;;;;;4.10;3.70;;;;;;;;;;5135632;28;20234;-50
2022/03/13 12:19:02;;;;;;;3.92;3.25;;;;;;;;;;5134018;28;20593;-50
2022/03/13 12:21:30;;;;;;;4.30;3.50;;;;;;;;;;5134258;28;20206;-50
2022/03/13 12:24:10;;;;;;;4.30;3.88;;;;;;;;;;5134443;28;20505;-50
2022/03/13 12:26:39;;;;;;;3.83;3.42;;;;;;;;;;5133845;28;20218;-50
2022/03/13 12:29:08;;;;;;;3.75;3.35;;;;;;;;;;5134110;28;20202;-50
2022/03/13 12:31:40;;;;;;;4.03;3.63;;;;;;;;;;5136129;28;20496;-50
2022/03/13 12:34:08;;;;;;;4.00;3.60;;;;;;;;;;5136069;28;20206;-50
2022/03/13 12:36:36;;;;;;;3.60;3.30;;;;;;;;;;5135866;28;20264;-50
2022/03/13 12:39:11;;;;;;;4.22;3.83;;;;;;;;;;5135312;28;20210;-50
2022/03/13 12:41:43;;;;;;;3.97;3.58;;;;;;;;;;5135378;28;20251;-50
2022/03/13 12:44:12;;;;;;;3.65;3.35;;;;;;;;;;5135718;28;20254;-50
2022/03/13 12:46:40;;;;;;;3.90;3.60;;;;;;;;;;5135179;28;20230;-50
2022/03/13 12:49:10;;;;;;;3.70;3.40;;;;;;;;;;5135327;28;20546;-50
2022/03/13 12:51:41;;;;;;;3.60;3.30;;;;;;;;;;5134317;28;20396;-50
2022/03/13 12:54:11;;;;;;;3.55;3.25;;;;;;;;;;5137120;27;20198;-50
2022/03/13 12:56:44;;;;;;;3.80;3.45;;;;;;;;;;5139337;27;20229;-50
2022/03/13 12:59:22;;;;;;;3.90;3.53;;;;;;;;;;5138754;27;20201;-50
2022/03/13 13:02:02;;;;;;;3.80;3.42;;;;;;;;;;5139667;27;20220;-50
2022/03/13 13:04:31;;;;;;;3.67;3.38;;;;;;;;;;5139453;27;20201;-50
2022/03/13 13:06:59;;;;;;;4.45;3.47;;;;;;;;;;5139332;27;20230;-50
2022/03/13 13:09:30;;;;;;;3.45;3.15;;;;;;;;;;5138346;27;20712;-50
2022/03/13 13:11:58;;;;;;;3.45;3.15;;;;;;;;;;5139245;27;20271;-50
2022/03/13 13:14:26;;;;;;;3.70;3.30;;;;;;;;;;5139053;27;20202;-50
2022/03/13 13:16:54;;;;;;;3.80;3.50;;;;;;;;;;5138898;27;20730;-50
2022/03/13 13:19:21;;;;;;;3.22;2.92;;;;;;;;;;5138224;27;20194;-50
2022/03/13 13:21:56;;;;;;;3.90;3.20;;;;;;;;;;5118289;28;20283;-50
2022/03/13 13:24:29;;;;;;;3.83;3.42;;;;;;;;;;5117450;28;20202;-50
2022/03/13 13:26:58;;;;;;;3.42;3.13;;;;;;;;;;5117903;28;20814;-50
2022/03/13 13:29:32;;;;;;;3.40;3.10;;;;;;;;;;5134868;27;20202;-50
2022/03/13 13:32:18;;;;;;;3.50;3.20;;;;;;;;;;5138061;27;20229;-50
2022/03/13 13:35:00;;;;;;;4.20;3.80;;;;;;;;;;5137991;27;20194;-50
2022/03/13 13:37:28;;;;;;;4.75;3.35;;;;;;;;;;5138158;27;20209;-50
2022/03/13 13:40:02;;;;;;;4.45;3.30;;;;;;;;;;5138201;27;20191;-50
2022/03/13 13:42:32;;;;;;;3.60;3.30;;;;;;;;;;5138057;27;20209;-50
2022/03/13 13:45:00;;;;;;;4.75;3.55;;;;;;;;;;5137615;27;20198;-50
2022/03/13 13:47:27;;;;;;;4.63;3.22;;;;;;;;;;5138450;27;20237;-50
2022/03/13 13:49:55;;;;;;;5.70;3.35;;;;;;;;;;5137903;27;20198;-50
2022/03/13 13:52:29;;;;;;;3.45;3.15;;;;;;;;;;5137591;27;20212;-50
2022/03/13 13:54:56;;;;;;;4.07;3.50;;;;;;;;;;5138130;27;20201;-50
2022/03/13 13:57:25;;;;;;;3.85;3.55;;;;;;;;;;5137226;27;20261;-50
2022/03/13 13:59:54;;;;;;;4.00;3.60;;;;;;;;;;5136256;27;20510;-50
2022/03/13 14:02:25;;;;;;;4.90;3.10;;;;;;;;;;5137710;27;20561;-50
2022/03/13 14:04:54;;;;;;;4.70;3.22;;;;;;;;;;5138000;27;20214;-50
2022/03/13 14:07:21;;;;;;;4.72;3.25;;;;;;;;;;5136656;27;20628;-50
2022/03/13 14:09:49;;;;;;;4.43;3.10;;;;;;;;;;5137112;27;20237;-51
2022/03/13 14:12:17;;;;;;;5.05;3.47;;;;;;;;;;5137593;27;20229;-50
2022/03/13 14:14:44;;;;;;;4.43;3.17;;;;;;;;;;5136738;27;20202;-50
2022/03/13 14:17:13;;;;;;;4.03;3.58;;;;;;;;;;5137990;27;20261;-50
2022/03/13 14:19:40;;;;;;;4.03;3.33;;;;;;;;;;5137071;27;20202;-50
2022/03/13 14:22:08;;;;;;;4.25;3.17;;;;;;;;;;5137410;27;20202;-50
2022/03/13 14:24:35;;;;;;;7.38;3.67;;;;;;;;;;5137592;27;20194;-50
2022/03/13 14:27:03;;;;;;;3.70;3.40;;;;;;;;;;5136951;27;20229;-50
2022/03/13 14:29:30;;;;;;;3.83;3.22;;;;;;;;;;5136229;27;20198;-50
2022/03/13 14:31:58;;;;;;;4.72;3.70;;;;;;;;;;5135986;27;20202;-50
2022/03/13 14:34:27;;;;;;;4.88;3.85;;;;;;;;;;5137032;27;20675;-50
2022/03/13 14:36:58;;;;;;;3.95;3.55;;;;;;;;;;5137670;27;20488;-50
2022/03/13 14:39:26;;;;;;;3.78;3.42;;;;;;;;;;5136192;27;20206;-50
2022/03/13 14:41:53;;;;;;;4.00;3.60;;;;;;;;;;5137277;27;20470;-51
2022/03/13 14:44:23;;;;;;;4.72;3.42;;;;;;;;;;5136959;27;20293;-50
2022/03/13 14:46:51;;;;;;;5.72;3.65;;;;;;;;;;5137162;27;20258;-50
2022/03/13 14:49:19;;;;;;;4.88;3.63;;;;;;;;;;5136353;27;20194;-51